sensor_id;sensor_type;location;lat;lon;timestamp;pressure;altitude;pressure_sealevel;temperature;humidity
32067;BME280;18573;47.890;35.066;2022-09-09T00:04:36;100852.33;;;16.88;100.00
32067;BME280;18573;47.890;35.066;2022-09-09T00:10:20;100858.47;;;16.69;100.00
32067;BME280;18573;47.890;35.066;2022-09-09T00:15:40;100864.17;;;16.56;100.00
32067;BME280;18573;47.890;35.066;2022-09-09T00:18:17;100859.89;;;16.43;100.00
32067;BME280;18573;47.890;35.066;2022-09-09T00:21:03;100861.64;;;16.50;100.00
32067;BME280;18573;47.890;35.066;2022-09-09T00:23:39;100865.52;;;16.39;100.00
32067;BME280;18573;47.890;35.066;2022-09-09T00:29:14;100865.95;;;16.48;100.00
32067;BME280;18573;47.890;35.066;2022-09-09T00:31:40;100865.95;;;16.48;100.00
32067;BME280;18573;47.890;35.066;2022-09-09T00:34:12;100851.04;;;16.45;100.00
32067;BME280;18573;47.890;35.066;2022-09-09T00:36:41;100851.75;;;16.55;100.00
32067;BME280;18573;47.890;35.066;2022-09-09T00:42:13;100857.01;;;16.62;100.00
32067;BME280;18573;47.890;35.066;2022-09-09T00:44:59;100852.11;;;16.61;100.00
32067;BME280;18573;47.890;35.066;2022-09-09T00:47:51;100848.17;;;16.52;100.00
32067;BME280;18573;47.890;35.066;2022-09-09T00:50:55;100846.06;;;16.54;100.00
32067;BME280;18573;47.890;35.066;2022-09-09T00:53:38;100858.14;;;16.35;100.00
32067;BME280;18573;47.890;35.066;2022-09-09T00:58:54;100866.28;;;16.23;100.00
32067;BME280;18573;47.890;35.066;2022-09-09T01:01:19;100870.89;;;16.11;100.00
32067;BME280;18573;47.890;35.066;2022-09-09T01:03:53;100858.84;;;16.02;100.00
32067;BME280;18573;47.890;35.066;2022-09-09T01:06:30;100856.49;;;16.05;100.00
32067;BME280;18573;47.890;35.066;2022-09-09T01:09:10;100854.70;;;15.97;100.00
32067;BME280;18573;47.890;35.066;2022-09-09T01:14:48;100855.70;;;16.07;100.00
32067;BME280;18573;47.890;35.066;2022-09-09T01:17:28;100847.58;;;15.90;100.00
32067;BME280;18573;47.890;35.066;2022-09-09T01:23:54;100852.82;;;15.97;100.00
32067;BME280;18573;47.890;35.066;2022-09-09T01:28:40;100844.02;;;15.76;100.00
32067;BME280;18573;47.890;35.066;2022-09-09T01:31:06;100844.02;;;15.76;100.00
32067;BME280;18573;47.890;35.066;2022-09-09T01:33:36;100856.22;;;15.78;100.00
32067;BME280;18573;47.890;35.066;2022-09-09T01:36:27;100855.40;;;15.78;100.00
32067;BME280;18573;47.890;35.066;2022-09-09T01:38:56;100868.63;;;15.79;100.00
32067;BME280;18573;47.890;35.066;2022-09-09T01:41:25;100868.63;;;15.79;100.00
32067;BME280;18573;47.890;35.066;2022-09-09T01:43:55;100856.28;;;15.81;100.00
32067;BME280;18573;47.890;35.066;2022-09-09T01:46:25;100856.28;;;15.81;100.00
32067;BME280;18573;47.890;35.066;2022-09-09T01:48:57;100864.21;;;15.50;100.00
32067;BME280;18573;47.890;35.066;2022-09-09T01:51:28;100866.44;;;15.41;100.00
32067;BME280;18573;47.890;35.066;2022-09-09T01:53:57;100872.47;;;15.34;100.00
32067;BME280;18573;47.890;35.066;2022-09-09T01:56:47;100872.47;;;15.34;100.00
32067;BME280;18573;47.890;35.066;2022-09-09T02:02:09;100870.87;;;15.12;100.00
32067;BME280;18573;47.890;35.066;2022-09-09T02:04:42;100871.45;;;15.02;100.00
32067;BME280;18573;47.890;35.066;2022-09-09T02:09:44;100879.70;;;14.98;100.00
32067;BME280;18573;47.890;35.066;2022-09-09T02:12:16;100878.64;;;14.99;100.00
32067;BME280;18573;47.890;35.066;2022-09-09T02:14:53;100879.08;;;15.05;100.00
32067;BME280;18573;47.890;35.066;2022-09-09T02:17:25;100877.16;;;15.15;100.00
32067;BME280;18573;47.890;35.066;2022-09-09T02:19:57;100886.88;;;15.04;100.00
32067;BME280;18573;47.890;35.066;2022-09-09T02:22:26;100881.06;;;15.22;100.00
32067;BME280;18573;47.890;35.066;2022-09-09T02:24:59;100877.67;;;15.26;100.00
32067;BME280;18573;47.890;35.066;2022-09-09T02:27:29;100877.67;;;15.26;100.00
32067;BME280;18573;47.890;35.066;2022-09-09T02:30:00;100869.05;;;14.91;100.00
32067;BME280;18573;47.890;35.066;2022-09-09T02:32:32;100870.93;;;14.91;100.00
32067;BME280;18573;47.890;35.066;2022-09-09T02:35:07;100882.61;;;14.85;100.00
32067;BME280;18573;47.890;35.066;2022-09-09T02:37:39;100875.05;;;14.73;100.00
32067;BME280;18573;47.890;35.066;2022-09-09T02:40:11;100875.05;;;14.73;100.00
32067;BME280;18573;47.890;35.066;2022-09-09T02:42:44;100898.18;;;14.83;100.00
32067;BME280;18573;47.890;35.066;2022-09-09T02:45:16;100895.33;;;14.66;100.00
32067;BME280;18573;47.890;35.066;2022-09-09T02:50:50;100902.11;;;14.89;100.00
32067;BME280;18573;47.890;35.066;2022-09-09T02:53:23;100914.79;;;14.80;100.00
32067;BME280;18573;47.890;35.066;2022-09-09T02:56:05;100904.91;;;14.83;100.00
32067;BME280;18573;47.890;35.066;2022-09-09T02:58:35;100914.87;;;14.94;100.00
32067;BME280;18573;47.890;35.066;2022-09-09T03:01:05;100920.38;;;14.99;100.00
32067;BME280;18573;47.890;35.066;2022-09-09T03:03:34;100922.30;;;14.89;100.00
32067;BME280;18573;47.890;35.066;2022-09-09T03:06:04;100922.30;;;14.89;100.00
32067;BME280;18573;47.890;35.066;2022-09-09T03:08:33;100920.63;;;15.42;100.00
32067;BME280;18573;47.890;35.066;2022-09-09T03:11:02;100914.64;;;15.52;100.00
32067;BME280;18573;47.890;35.066;2022-09-09T03:13:32;100914.64;;;15.52;100.00
32067;BME280;18573;47.890;35.066;2022-09-09T03:16:01;100917.56;;;15.62;100.00
32067;BME280;18573;47.890;35.066;2022-09-09T03:18:31;100917.56;;;15.62;100.00
32067;BME280;18573;47.890;35.066;2022-09-09T03:21:02;100926.91;;;15.45;100.00
32067;BME280;18573;47.890;35.066;2022-09-09T03:23:31;100929.08;;;15.69;100.00
32067;BME280;18573;47.890;35.066;2022-09-09T03:26:00;100936.25;;;15.89;100.00
32067;BME280;18573;47.890;35.066;2022-09-09T03:28:29;100925.92;;;15.98;100.00
32067;BME280;18573;47.890;35.066;2022-09-09T03:31:03;100932.48;;;16.02;100.00
32067;BME280;18573;47.890;35.066;2022-09-09T03:33:33;100932.48;;;16.02;100.00
32067;BME280;18573;47.890;35.066;2022-09-09T03:36:04;100936.82;;;16.43;100.00
32067;BME280;18573;47.890;35.066;2022-09-09T03:38:35;100936.41;;;16.49;100.00
32067;BME280;18573;47.890;35.066;2022-09-09T03:41:04;100940.27;;;16.53;100.00
32067;BME280;18573;47.890;35.066;2022-09-09T03:43:34;100934.21;;;16.34;100.00
32067;BME280;18573;47.890;35.066;2022-09-09T03:46:03;100940.64;;;16.31;100.00
32067;BME280;18573;47.890;35.066;2022-09-09T03:48:32;100928.41;;;16.00;100.00
32067;BME280;18573;47.890;35.066;2022-09-09T03:51:01;100914.22;;;16.47;100.00
32067;BME280;18573;47.890;35.066;2022-09-09T03:53:31;100925.63;;;16.66;100.00
32067;BME280;18573;47.890;35.066;2022-09-09T03:56:03;100929.95;;;16.50;100.00
32067;BME280;18573;47.890;35.066;2022-09-09T03:58:35;100924.61;;;16.81;100.00
32067;BME280;18573;47.890;35.066;2022-09-09T04:01:10;100926.87;;;16.58;100.00
32067;BME280;18573;47.890;35.066;2022-09-09T04:03:41;100926.87;;;16.58;100.00
32067;BME280;18573;47.890;35.066;2022-09-09T04:06:11;100930.96;;;17.06;100.00
32067;BME280;18573;47.890;35.066;2022-09-09T04:08:42;100930.96;;;17.06;100.00
32067;BME280;18573;47.890;35.066;2022-09-09T04:11:12;100930.14;;;17.06;100.00
32067;BME280;18573;47.890;35.066;2022-09-09T04:13:42;100928.55;;;18.18;100.00
32067;BME280;18573;47.890;35.066;2022-09-09T04:16:13;100928.55;;;18.18;100.00
32067;BME280;18573;47.890;35.066;2022-09-09T04:18:43;100932.24;;;19.13;100.00
32067;BME280;18573;47.890;35.066;2022-09-09T04:21:12;100935.91;;;19.66;100.00
32067;BME280;18573;47.890;35.066;2022-09-09T04:23:41;100937.27;;;20.18;100.00
32067;BME280;18573;47.890;35.066;2022-09-09T04:26:10;100937.27;;;20.18;100.00
32067;BME280;18573;47.890;35.066;2022-09-09T04:28:39;100942.91;;;21.05;100.00
32067;BME280;18573;47.890;35.066;2022-09-09T04:31:17;100933.09;;;21.65;94.64
32067;BME280;18573;47.890;35.066;2022-09-09T04:33:46;100946.67;;;23.61;71.29
32067;BME280;18573;47.890;35.066;2022-09-09T04:36:16;100946.67;;;23.61;71.29
32067;BME280;18573;47.890;35.066;2022-09-09T04:38:47;100950.33;;;23.48;73.66
32067;BME280;18573;47.890;35.066;2022-09-09T04:41:18;100948.56;;;23.65;73.25
32067;BME280;18573;47.890;35.066;2022-09-09T04:43:47;100959.09;;;25.52;58.58
32067;BME280;18573;47.890;35.066;2022-09-09T04:46:16;100959.09;;;25.52;58.58
32067;BME280;18573;47.890;35.066;2022-09-09T04:48:45;100952.42;;;24.55;61.83
32067;BME280;18573;47.890;35.066;2022-09-09T04:51:15;100956.81;;;24.32;64.71
32067;BME280;18573;47.890;35.066;2022-09-09T04:53:44;100956.88;;;24.48;64.91
32067;BME280;18573;47.890;35.066;2022-09-09T04:56:16;100951.42;;;25.68;57.79
32067;BME280;18573;47.890;35.066;2022-09-09T04:58:46;100951.42;;;25.68;57.79
32067;BME280;18573;47.890;35.066;2022-09-09T05:01:20;100941.02;;;26.36;54.26
32067;BME280;18573;47.890;35.066;2022-09-09T05:03:52;100941.02;;;26.36;54.26
32067;BME280;18573;47.890;35.066;2022-09-09T05:06:22;100944.67;;;26.32;54.03
32067;BME280;18573;47.890;35.066;2022-09-09T05:08:51;100943.49;;;25.83;57.11
32067;BME280;18573;47.890;35.066;2022-09-09T05:11:22;100948.48;;;26.33;53.57
32067;BME280;18573;47.890;35.066;2022-09-09T05:13:52;100948.48;;;26.33;53.57
32067;BME280;18573;47.890;35.066;2022-09-09T05:16:22;100941.80;;;25.98;54.81
32067;BME280;18573;47.890;35.066;2022-09-09T05:18:52;100961.16;;;26.93;51.46
32067;BME280;18573;47.890;35.066;2022-09-09T05:21:23;100961.34;;;27.84;47.36
32067;BME280;18573;47.890;35.066;2022-09-09T05:23:54;100961.34;;;27.84;47.36
32067;BME280;18573;47.890;35.066;2022-09-09T05:26:23;100956.61;;;28.70;44.20
32067;BME280;18573;47.890;35.066;2022-09-09T05:28:53;100950.54;;;28.70;44.39
32067;BME280;18573;47.890;35.066;2022-09-09T05:31:22;100950.54;;;28.70;44.39
32067;BME280;18573;47.890;35.066;2022-09-09T05:33:54;100951.91;;;27.45;46.29
32067;BME280;18573;47.890;35.066;2022-09-09T05:36:23;100960.75;;;28.04;45.56
32067;BME280;18573;47.890;35.066;2022-09-09T05:38:53;100960.75;;;28.04;45.56
32067;BME280;18573;47.890;35.066;2022-09-09T05:41:23;100966.79;;;29.53;41.96
32067;BME280;18573;47.890;35.066;2022-09-09T05:43:53;100970.31;;;29.57;42.37
32067;BME280;18573;47.890;35.066;2022-09-09T05:46:24;100962.02;;;28.26;43.66
32067;BME280;18573;47.890;35.066;2022-09-09T05:48:54;100965.98;;;28.43;43.04
32067;BME280;18573;47.890;35.066;2022-09-09T05:51:25;100978.05;;;28.05;43.61
32067;BME280;18573;47.890;35.066;2022-09-09T05:53:56;100978.05;;;28.05;43.61
32067;BME280;18573;47.890;35.066;2022-09-09T05:56:29;100978.30;;;28.71;42.09
32067;BME280;18573;47.890;35.066;2022-09-09T05:59:01;100975.59;;;29.56;40.17
32067;BME280;18573;47.890;35.066;2022-09-09T06:01:32;100981.29;;;29.33;39.67
32067;BME280;18573;47.890;35.066;2022-09-09T06:04:02;100981.29;;;29.33;39.67
32067;BME280;18573;47.890;35.066;2022-09-09T06:06:34;100971.40;;;28.54;40.75
32067;BME280;18573;47.890;35.066;2022-09-09T06:09:08;100972.83;;;28.97;40.12
32067;BME280;18573;47.890;35.066;2022-09-09T06:11:39;100974.34;;;28.09;41.31
32067;BME280;18573;47.890;35.066;2022-09-09T06:14:08;100986.82;;;29.16;39.46
32067;BME280;18573;47.890;35.066;2022-09-09T06:16:38;100978.58;;;30.33;37.47
32067;BME280;18573;47.890;35.066;2022-09-09T06:19:07;100992.60;;;30.70;36.76
32067;BME280;18573;47.890;35.066;2022-09-09T06:21:37;101007.43;;;29.50;37.46
32067;BME280;18573;47.890;35.066;2022-09-09T06:24:06;100997.03;;;28.35;39.90
32067;BME280;18573;47.890;35.066;2022-09-09T06:26:37;100997.03;;;28.35;39.90
32067;BME280;18573;47.890;35.066;2022-09-09T06:29:09;100996.80;;;29.14;38.70
32067;BME280;18573;47.890;35.066;2022-09-09T06:31:39;101002.92;;;28.94;39.25
32067;BME280;18573;47.890;35.066;2022-09-09T06:34:09;100998.33;;;29.91;38.07
32067;BME280;18573;47.890;35.066;2022-09-09T06:36:39;100998.33;;;29.91;38.07
32067;BME280;18573;47.890;35.066;2022-09-09T06:39:08;101004.39;;;30.73;35.56
32067;BME280;18573;47.890;35.066;2022-09-09T06:41:40;101004.39;;;30.73;35.56
32067;BME280;18573;47.890;35.066;2022-09-09T06:44:10;101009.66;;;30.93;35.26
32067;BME280;18573;47.890;35.066;2022-09-09T06:46:39;101008.09;;;31.58;34.38
32067;BME280;18573;47.890;35.066;2022-09-09T06:49:09;101007.30;;;29.94;36.79
32067;BME280;18573;47.890;35.066;2022-09-09T06:51:39;101003.75;;;30.82;35.67
32067;BME280;18573;47.890;35.066;2022-09-09T06:54:10;101013.16;;;29.69;37.54
32067;BME280;18573;47.890;35.066;2022-09-09T06:56:41;101009.73;;;30.34;37.37
32067;BME280;18573;47.890;35.066;2022-09-09T06:59:11;101009.73;;;30.34;37.37
32067;BME280;18573;47.890;35.066;2022-09-09T07:01:44;101009.95;;;31.06;36.44
32067;BME280;18573;47.890;35.066;2022-09-09T07:04:16;101013.33;;;30.85;36.28
32067;BME280;18573;47.890;35.066;2022-09-09T07:06:46;101013.33;;;30.85;36.28
32067;BME280;18573;47.890;35.066;2022-09-09T07:09:16;101013.72;;;30.60;36.02
32067;BME280;18573;47.890;35.066;2022-09-09T07:11:48;101012.47;;;30.04;38.01
32067;BME280;18573;47.890;35.066;2022-09-09T07:14:19;101008.46;;;32.73;33.41
32067;BME280;18573;47.890;35.066;2022-09-09T07:16:49;101008.46;;;32.73;33.41
32067;BME280;18573;47.890;35.066;2022-09-09T07:19:20;101017.87;;;31.22;35.83
32067;BME280;18573;47.890;35.066;2022-09-09T07:21:49;101018.78;;;31.99;34.67
32067;BME280;18573;47.890;35.066;2022-09-09T07:24:18;101019.87;;;32.84;34.36
32067;BME280;18573;47.890;35.066;2022-09-09T07:26:47;101019.87;;;32.84;34.36
32067;BME280;18573;47.890;35.066;2022-09-09T07:29:17;101027.19;;;31.51;36.06
32067;BME280;18573;47.890;35.066;2022-09-09T07:31:47;101029.39;;;30.32;36.84
32067;BME280;18573;47.890;35.066;2022-09-09T07:34:17;101029.39;;;30.32;36.84
32067;BME280;18573;47.890;35.066;2022-09-09T07:36:46;101022.95;;;30.99;36.82
32067;BME280;18573;47.890;35.066;2022-09-09T07:39:16;101022.95;;;30.99;36.82
32067;BME280;18573;47.890;35.066;2022-09-09T07:41:47;101022.94;;;31.93;34.58
32067;BME280;18573;47.890;35.066;2022-09-09T07:44:20;101010.73;;;31.55;35.41
32067;BME280;18573;47.890;35.066;2022-09-09T07:46:49;101010.73;;;31.55;35.41
32067;BME280;18573;47.890;35.066;2022-09-09T07:49:19;101020.58;;;30.39;36.17
32067;BME280;18573;47.890;35.066;2022-09-09T07:51:50;101020.58;;;30.39;36.17
32067;BME280;18573;47.890;35.066;2022-09-09T07:54:21;101014.48;;;29.86;37.56
32067;BME280;18573;47.890;35.066;2022-09-09T07:56:52;101004.45;;;30.49;37.19
32067;BME280;18573;47.890;35.066;2022-09-09T07:59:21;101014.02;;;31.09;35.73
32067;BME280;18573;47.890;35.066;2022-09-09T08:01:52;101019.51;;;29.84;37.28
32067;BME280;18573;47.890;35.066;2022-09-09T08:04:24;101012.34;;;29.77;37.80
32067;BME280;18573;47.890;35.066;2022-09-09T08:06:59;101011.23;;;30.52;36.66
32067;BME280;18573;47.890;35.066;2022-09-09T08:09:29;101018.38;;;31.10;36.50
32067;BME280;18573;47.890;35.066;2022-09-09T08:12:00;101018.38;;;31.10;36.50
32067;BME280;18573;47.890;35.066;2022-09-09T08:14:29;101020.50;;;31.85;34.40
32067;BME280;18573;47.890;35.066;2022-09-09T08:16:58;101015.06;;;31.37;35.48
32067;BME280;18573;47.890;35.066;2022-09-09T08:19:27;101020.44;;;30.50;36.23
32067;BME280;18573;47.890;35.066;2022-09-09T08:21:58;101007.76;;;30.64;35.88
32067;BME280;18573;47.890;35.066;2022-09-09T08:24:27;101007.76;;;30.64;35.88
32067;BME280;18573;47.890;35.066;2022-09-09T08:26:56;101002.44;;;29.99;35.88
32067;BME280;18573;47.890;35.066;2022-09-09T08:29:25;101001.00;;;31.30;34.29
32067;BME280;18573;47.890;35.066;2022-09-09T08:31:57;100999.20;;;31.98;32.56
32067;BME280;18573;47.890;35.066;2022-09-09T08:34:27;100999.20;;;31.98;32.56
32067;BME280;18573;47.890;35.066;2022-09-09T08:36:58;100999.32;;;32.38;32.28
32067;BME280;18573;47.890;35.066;2022-09-09T08:39:27;100984.89;;;30.69;34.89
32067;BME280;18573;47.890;35.066;2022-09-09T08:42:17;100984.89;;;30.69;34.89
32067;BME280;18573;47.890;35.066;2022-09-09T08:47:54;100978.55;;;30.63;34.31
32067;BME280;18573;47.890;35.066;2022-09-09T08:50:30;100979.59;;;29.26;35.82
32067;BME280;18573;47.890;35.066;2022-09-09T08:53:11;100978.09;;;28.96;36.78
32067;BME280;18573;47.890;35.066;2022-09-09T08:55:51;100978.09;;;28.96;36.78
32067;BME280;18573;47.890;35.066;2022-09-09T08:58:29;100979.77;;;29.53;36.04
32067;BME280;18573;47.890;35.066;2022-09-09T09:11:54;100966.72;;;29.24;36.34
32067;BME280;18573;47.890;35.066;2022-09-09T09:14:30;100960.72;;;31.14;34.06
32067;BME280;18573;47.890;35.066;2022-09-09T09:17:04;100960.72;;;31.14;34.06
32067;BME280;18573;47.890;35.066;2022-09-09T09:19:35;100969.95;;;30.35;36.14
32067;BME280;18573;47.890;35.066;2022-09-09T09:22:22;100972.11;;;30.29;34.71
32067;BME280;18573;47.890;35.066;2022-09-09T09:30:21;100968.16;;;30.60;34.81
32067;BME280;18573;47.890;35.066;2022-09-09T09:32:55;100975.78;;;30.63;35.03
32067;BME280;18573;47.890;35.066;2022-09-09T09:35:24;100971.05;;;30.78;35.06
32067;BME280;18573;47.890;35.066;2022-09-09T09:37:54;100974.08;;;29.90;36.25
32067;BME280;18573;47.890;35.066;2022-09-09T09:40:25;100968.56;;;31.12;34.37
32067;BME280;18573;47.890;35.066;2022-09-09T09:43:04;100974.66;;;30.85;34.57
32067;BME280;18573;47.890;35.066;2022-09-09T09:45:42;100984.34;;;29.81;35.91
32067;BME280;18573;47.890;35.066;2022-09-09T09:48:17;100984.34;;;29.81;35.91
32067;BME280;18573;47.890;35.066;2022-09-09T09:50:49;100967.27;;;30.83;33.77
32067;BME280;18573;47.890;35.066;2022-09-09T09:53:27;100969.97;;;30.20;34.25
32067;BME280;18573;47.890;35.066;2022-09-09T09:56:02;100962.79;;;30.28;34.93
32067;BME280;18573;47.890;35.066;2022-09-09T10:01:27;100947.61;;;28.93;37.27
32067;BME280;18573;47.890;35.066;2022-09-09T10:04:21;100947.61;;;28.93;37.27
32067;BME280;18573;47.890;35.066;2022-09-09T10:06:52;100959.22;;;29.74;35.71
32067;BME280;18573;47.890;35.066;2022-09-09T10:09:29;100962.77;;;29.19;37.11
32067;BME280;18573;47.890;35.066;2022-09-09T10:17:58;100958.55;;;28.32;37.87
32067;BME280;18573;47.890;35.066;2022-09-09T10:20:50;100960.15;;;27.96;39.47
32067;BME280;18573;47.890;35.066;2022-09-09T10:27:27;100962.59;;;27.78;39.40
32067;BME280;18573;47.890;35.066;2022-09-09T10:37:40;100958.27;;;26.75;40.14
32067;BME280;18573;47.890;35.066;2022-09-09T10:40:21;100953.23;;;26.55;40.32
32067;BME280;18573;47.890;35.066;2022-09-09T10:42:53;100953.23;;;26.55;40.32
32067;BME280;18573;47.890;35.066;2022-09-09T10:56:25;100954.77;;;26.84;39.40
32067;BME280;18573;47.890;35.066;2022-09-09T10:59:20;100947.34;;;26.73;38.97
32067;BME280;18573;47.890;35.066;2022-09-09T11:02:03;100953.80;;;27.02;37.70
32067;BME280;18573;47.890;35.066;2022-09-09T11:05:27;100948.56;;;26.17;35.77
32067;BME280;18573;47.890;35.066;2022-09-09T11:07:13;100944.63;;;26.20;35.99
32067;BME280;18573;47.890;35.066;2022-09-09T11:09:46;100944.29;;;26.11;35.21
32067;BME280;18573;47.890;35.066;2022-09-09T11:12:17;100950.52;;;26.28;33.93
32067;BME280;18573;47.890;35.066;2022-09-09T11:15:07;100953.71;;;26.82;32.60
32067;BME280;18573;47.890;35.066;2022-09-09T11:17:52;100948.25;;;26.18;34.39
32067;BME280;18573;47.890;35.066;2022-09-09T11:20:12;100957.83;;;26.46;33.92
32067;BME280;18573;47.890;35.066;2022-09-09T11:25:44;100951.75;;;26.60;34.55
32067;BME280;18573;47.890;35.066;2022-09-09T11:41:51;100929.28;;;26.47;34.40
32067;BME280;18573;47.890;35.066;2022-09-09T11:44:27;100918.42;;;26.89;34.53
32067;BME280;18573;47.890;35.066;2022-09-09T11:46:55;100918.42;;;26.89;34.53
32067;BME280;18573;47.890;35.066;2022-09-09T11:55:26;100917.55;;;26.80;33.13
32067;BME280;18573;47.890;35.066;2022-09-09T12:00:45;100913.59;;;26.50;33.53
32067;BME280;18573;47.890;35.066;2022-09-09T12:03:48;100917.86;;;26.90;33.35
32067;BME280;18573;47.890;35.066;2022-09-09T12:06:25;100915.61;;;27.03;33.57
32067;BME280;18573;47.890;35.066;2022-09-09T12:08:58;100915.61;;;27.03;33.57
32067;BME280;18573;47.890;35.066;2022-09-09T12:11:29;100917.12;;;27.20;34.28
32067;BME280;18573;47.890;35.066;2022-09-09T12:14:01;100915.03;;;26.92;34.95
32067;BME280;18573;47.890;35.066;2022-09-09T12:16:33;100915.05;;;27.26;34.30
32067;BME280;18573;47.890;35.066;2022-09-09T12:19:06;100909.82;;;26.93;34.64
32067;BME280;18573;47.890;35.066;2022-09-09T12:24:19;100905.84;;;26.52;34.98
32067;BME280;18573;47.890;35.066;2022-09-09T12:26:58;100909.59;;;25.92;35.72
32067;BME280;18573;47.890;35.066;2022-09-09T12:32:18;100909.22;;;26.10;35.73
32067;BME280;18573;47.890;35.066;2022-09-09T12:34:52;100910.84;;;26.50;35.00
32067;BME280;18573;47.890;35.066;2022-09-09T12:37:29;100902.49;;;25.91;35.41
32067;BME280;18573;47.890;35.066;2022-09-09T12:40:00;100902.89;;;26.12;36.09
32067;BME280;18573;47.890;35.066;2022-09-09T12:42:31;100902.89;;;26.12;36.09
32067;BME280;18573;47.890;35.066;2022-09-09T12:45:15;100909.92;;;25.74;35.32
32067;BME280;18573;47.890;35.066;2022-09-09T12:47:40;100907.98;;;25.78;35.07
32067;BME280;18573;47.890;35.066;2022-09-09T12:50:22;100907.98;;;25.78;35.07
32067;BME280;18573;47.890;35.066;2022-09-09T12:52:55;100910.51;;;25.88;34.96
32067;BME280;18573;47.890;35.066;2022-09-09T12:55:28;100916.38;;;25.67;36.00
32067;BME280;18573;47.890;35.066;2022-09-09T12:57:58;100916.38;;;25.67;36.00
32067;BME280;18573;47.890;35.066;2022-09-09T13:00:31;100921.31;;;25.51;36.52
32067;BME280;18573;47.890;35.066;2022-09-09T13:03:03;100921.31;;;25.51;36.52
32067;BME280;18573;47.890;35.066;2022-09-09T13:05:36;100914.48;;;25.82;36.66
32067;BME280;18573;47.890;35.066;2022-09-09T13:08:11;100920.80;;;25.80;36.99
32067;BME280;18573;47.890;35.066;2022-09-09T13:11:04;100920.80;;;25.80;36.99
32067;BME280;18573;47.890;35.066;2022-09-09T13:13:34;100921.63;;;25.50;36.98
32067;BME280;18573;47.890;35.066;2022-09-09T13:16:06;100919.77;;;25.32;37.75
32067;BME280;18573;47.890;35.066;2022-09-09T13:18:40;100927.32;;;25.05;37.67
32067;BME280;18573;47.890;35.066;2022-09-09T13:21:10;100927.36;;;24.86;38.81
32067;BME280;18573;47.890;35.066;2022-09-09T13:23:39;100927.36;;;24.86;38.81
32067;BME280;18573;47.890;35.066;2022-09-09T13:26:25;100932.63;;;24.80;37.86
32067;BME280;18573;47.890;35.066;2022-09-09T13:29:08;100932.63;;;24.80;37.86
32067;BME280;18573;47.890;35.066;2022-09-09T13:31:37;100934.03;;;24.96;38.34
32067;BME280;18573;47.890;35.066;2022-09-09T13:34:28;100934.03;;;24.96;38.34
32067;BME280;18573;47.890;35.066;2022-09-09T13:37:00;100937.21;;;24.84;38.77
32067;BME280;18573;47.890;35.066;2022-09-09T13:39:33;100928.90;;;24.54;40.05
32067;BME280;18573;47.890;35.066;2022-09-09T13:42:05;100928.90;;;24.54;40.05
32067;BME280;18573;47.890;35.066;2022-09-09T13:44:37;100942.67;;;24.68;40.22
32067;BME280;18573;47.890;35.066;2022-09-09T13:49:39;100942.05;;;24.55;40.32
32067;BME280;18573;47.890;35.066;2022-09-09T13:52:13;100942.05;;;24.55;40.32
32067;BME280;18573;47.890;35.066;2022-09-09T13:54:49;100939.03;;;24.54;40.21
32067;BME280;18573;47.890;35.066;2022-09-09T13:57:25;100940.31;;;24.40;40.56
32067;BME280;18573;47.890;35.066;2022-09-09T13:59:54;100936.73;;;24.63;40.34
32067;BME280;18573;47.890;35.066;2022-09-09T14:02:24;100930.53;;;24.34;42.05
32067;BME280;18573;47.890;35.066;2022-09-09T14:04:54;100934.19;;;24.48;41.73
32067;BME280;18573;47.890;35.066;2022-09-09T14:07:23;100939.06;;;24.30;42.06
32067;BME280;18573;47.890;35.066;2022-09-09T14:09:53;100927.88;;;24.29;42.52
32067;BME280;18573;47.890;35.066;2022-09-09T14:12:22;100942.09;;;24.49;43.06
32067;BME280;18573;47.890;35.066;2022-09-09T14:14:51;100942.37;;;24.26;42.36
32067;BME280;18573;47.890;35.066;2022-09-09T14:17:20;100941.00;;;24.26;42.98
32067;BME280;18573;47.890;35.066;2022-09-09T14:19:50;100941.00;;;24.26;42.98
32067;BME280;18573;47.890;35.066;2022-09-09T14:22:19;100940.02;;;24.20;42.79
32067;BME280;18573;47.890;35.066;2022-09-09T14:24:48;100942.92;;;24.26;42.71
32067;BME280;18573;47.890;35.066;2022-09-09T14:27:19;100942.92;;;24.26;42.71
32067;BME280;18573;47.890;35.066;2022-09-09T14:29:48;100942.71;;;24.01;43.30
32067;BME280;18573;47.890;35.066;2022-09-09T14:32:17;100939.70;;;23.76;43.59
32067;BME280;18573;47.890;35.066;2022-09-09T14:34:46;100939.70;;;23.76;43.59
32067;BME280;18573;47.890;35.066;2022-09-09T14:37:17;100946.89;;;23.93;43.33
32067;BME280;18573;47.890;35.066;2022-09-09T14:39:46;100951.50;;;23.71;43.29
32067;BME280;18573;47.890;35.066;2022-09-09T14:42:17;100947.45;;;23.69;43.37
32067;BME280;18573;47.890;35.066;2022-09-09T14:44:47;100947.45;;;23.69;43.37
32067;BME280;18573;47.890;35.066;2022-09-09T14:47:16;100953.86;;;23.81;43.38
32067;BME280;18573;47.890;35.066;2022-09-09T14:49:45;100952.61;;;23.70;43.02
32067;BME280;18573;47.890;35.066;2022-09-09T14:52:16;100952.66;;;23.65;43.18
32067;BME280;18573;47.890;35.066;2022-09-09T14:54:45;100946.08;;;23.69;43.36
32067;BME280;18573;47.890;35.066;2022-09-09T14:57:14;100957.66;;;23.53;43.50
32067;BME280;18573;47.890;35.066;2022-09-09T14:59:43;100960.08;;;23.57;43.17
32067;BME280;18573;47.890;35.066;2022-09-09T15:02:12;100960.08;;;23.57;43.17
32067;BME280;18573;47.890;35.066;2022-09-09T15:04:42;100962.24;;;23.60;43.51